createdAt,value
2023-06-18T00:02:02.632Z,17.77
2023-06-18T00:04:29.541Z,15.32
2023-06-18T00:06:57.433Z,16.92
2023-06-18T00:09:24.731Z,17.55
2023-06-18T00:11:51.954Z,15.75
2023-06-18T00:14:19.523Z,18.30
2023-06-18T00:16:46.581Z,16.88
2023-06-18T00:19:15.205Z,15.40
2023-06-18T00:21:42.181Z,15.88
2023-06-18T00:24:09.178Z,16.65
2023-06-18T00:26:36.240Z,14.88
2023-06-18T00:29:03.386Z,14.50
2023-06-18T00:31:33.661Z,14.52
2023-06-18T00:34:08.441Z,14.20
2023-06-18T00:36:40.432Z,16.33
2023-06-18T00:39:08.331Z,15.90
2023-06-18T00:41:36.321Z,17.23
2023-06-18T00:44:03.708Z,13.45
2023-06-18T00:46:36.677Z,14.63
2023-06-18T00:49:03.901Z,15.75
2023-06-18T00:51:31.582Z,16.00
2023-06-18T00:53:58.987Z,14.57
2023-06-18T00:56:26.693Z,16.85
2023-06-18T00:58:53.680Z,15.40
2023-06-18T01:01:21.402Z,15.20
2023-06-18T01:03:49.664Z,16.75
2023-06-18T01:06:18.704Z,14.95
2023-06-18T01:08:50.360Z,15.80
2023-06-18T01:13:47.230Z,13.40
2023-06-18T01:16:14.935Z,14.73
2023-06-18T01:18:51.803Z,12.88
2023-06-18T01:21:21.895Z,12.98
2023-06-18T01:23:58.696Z,13.80
2023-06-18T01:26:27.827Z,13.55
2023-06-18T01:28:55.217Z,14.35
2023-06-18T01:31:27.759Z,15.10
2023-06-18T01:33:56.300Z,11.50
2023-06-18T01:36:48.750Z,18.02
2023-06-18T01:39:18.390Z,16.60
2023-06-18T01:41:46.640Z,16.83
2023-06-18T01:44:20.232Z,13.65
2023-06-18T01:46:48.326Z,15.63
2023-06-18T01:49:16.462Z,15.07
2023-06-18T01:51:43.682Z,14.93
2023-06-18T01:54:10.860Z,15.23
2023-06-18T01:56:37.922Z,13.13
2023-06-18T01:59:04.900Z,15.40
2023-06-18T02:01:32.347Z,14.73
2023-06-18T02:03:59.487Z,14.23
2023-06-18T02:06:26.635Z,17.00
2023-06-18T02:08:53.508Z,16.75
2023-06-18T02:11:20.509Z,15.82
2023-06-18T02:13:47.386Z,13.82
2023-06-18T02:16:14.432Z,16.00
2023-06-18T02:18:41.808Z,14.38
2023-06-18T02:21:09.301Z,13.98
2023-06-18T02:23:36.347Z,15.00
2023-06-18T02:26:04.838Z,19.17
2023-06-18T02:28:31.823Z,17.00
2023-06-18T02:30:58.663Z,17.33
2023-06-18T02:33:26.528Z,15.80
2023-06-18T02:35:53.454Z,15.45
2023-06-18T02:38:20.287Z,14.13
2023-06-18T02:40:47.165Z,16.55
2023-06-18T02:43:14.167Z,17.45
2023-06-18T02:45:41.142Z,18.25
2023-06-18T02:48:08.066Z,15.27
2023-06-18T02:50:35.056Z,17.63
2023-06-18T02:53:01.955Z,20.05
2023-06-18T02:55:29.359Z,15.98
2023-06-18T02:57:56.267Z,16.00
2023-06-18T03:00:23.324Z,15.93
2023-06-18T03:02:50.675Z,15.18
2023-06-18T03:05:17.622Z,14.38
2023-06-18T03:07:44.624Z,15.93
2023-06-18T03:10:11.592Z,17.48
2023-06-18T03:12:38.511Z,19.33
2023-06-18T03:15:06.939Z,16.70
2023-06-18T03:17:33.926Z,18.35
2023-06-18T03:20:00.818Z,18.67
2023-06-18T03:22:27.690Z,16.85
2023-06-18T03:24:54.541Z,15.63
2023-06-18T03:27:21.667Z,14.40
2023-06-18T03:29:48.644Z,18.38
2023-06-18T03:32:15.560Z,14.18
2023-06-18T03:34:43.521Z,15.07
2023-06-18T03:37:10.733Z,17.95
2023-06-18T03:39:37.584Z,17.65
2023-06-18T03:42:04.614Z,17.98
2023-06-18T03:44:31.534Z,18.75
2023-06-18T03:46:58.492Z,20.38
2023-06-18T03:49:25.536Z,18.58
2023-06-18T03:51:52.433Z,20.38
2023-06-18T03:54:19.361Z,20.10
2023-06-18T03:56:46.214Z,23.80
2023-06-18T03:59:13.167Z,18.63
2023-06-18T04:01:40.061Z,18.38
2023-06-18T04:04:06.944Z,18.80
2023-06-18T04:06:33.952Z,21.98
2023-06-18T04:09:00.792Z,20.17
2023-06-18T04:11:28.376Z,20.58
2023-06-18T04:13:55.476Z,22.98
2023-06-18T04:16:22.349Z,21.55
2023-06-18T04:18:49.200Z,19.85
2023-06-18T04:21:16.088Z,19.85
2023-06-18T04:23:46.072Z,21.80
2023-06-18T04:26:13.028Z,19.08
2023-06-18T04:28:39.978Z,22.65
2023-06-18T04:31:06.898Z,19.33
2023-06-18T04:33:33.979Z,20.77
2023-06-18T04:36:00.859Z,19.70
2023-06-18T04:38:28.218Z,21.77
2023-06-18T04:40:55.090Z,21.02
2023-06-18T04:43:22.002Z,20.98
2023-06-18T04:45:49.443Z,22.65
2023-06-18T04:48:16.373Z,20.10
2023-06-18T04:50:43.315Z,21.63
2023-06-18T04:53:10.185Z,23.95
2023-06-18T04:55:38.137Z,18.92
2023-06-18T04:58:06.103Z,18.35
2023-06-18T05:00:34.472Z,22.73
2023-06-18T05:03:02.127Z,20.00
2023-06-18T05:05:29.272Z,22.05
2023-06-18T05:07:56.407Z,20.63
2023-06-18T05:10:23.863Z,21.40
2023-06-18T05:12:51.112Z,21.10
2023-06-18T05:15:18.045Z,20.33
2023-06-18T05:17:44.973Z,21.75
2023-06-18T05:20:12.431Z,19.63
2023-06-18T05:22:41.361Z,21.48
2023-06-18T05:25:08.484Z,24.08
2023-06-18T05:27:35.524Z,22.42
2023-06-18T05:30:02.785Z,25.10
2023-06-18T05:32:29.742Z,22.00
2023-06-18T05:34:56.757Z,24.15
2023-06-18T05:37:23.676Z,22.23
2023-06-18T05:39:53.819Z,21.88
2023-06-18T05:42:21.093Z,19.95
2023-06-18T05:44:48.062Z,24.33
2023-06-18T05:47:14.965Z,23.73
2023-06-18T05:49:41.821Z,21.48
2023-06-18T05:52:08.703Z,22.30
2023-06-18T05:54:35.548Z,25.05
2023-06-18T05:57:02.424Z,22.58
2023-06-18T05:59:29.358Z,25.95
2023-06-18T06:01:56.977Z,22.52
2023-06-18T06:04:24.237Z,22.88
2023-06-18T06:06:51.674Z,21.20
2023-06-18T06:09:18.594Z,20.80
2023-06-18T06:11:45.640Z,22.95
2023-06-18T06:14:12.537Z,25.85
2023-06-18T06:16:39.689Z,24.05
2023-06-18T06:19:06.811Z,23.02
2023-06-18T06:21:35.112Z,23.52
2023-06-18T06:24:02.904Z,25.52
2023-06-18T06:26:29.962Z,22.35
2023-06-18T06:28:56.861Z,26.30
2023-06-18T06:31:23.783Z,25.15
2023-06-18T06:33:52.254Z,24.02
2023-06-18T06:36:19.647Z,25.70
2023-06-18T06:38:46.544Z,22.90
2023-06-18T06:41:13.436Z,24.50
2023-06-18T06:43:40.801Z,22.77
2023-06-18T06:46:07.783Z,22.42
2023-06-18T06:48:34.718Z,21.77
2023-06-18T06:51:01.894Z,22.65
2023-06-18T06:53:28.845Z,19.13
2023-06-18T06:55:55.796Z,15.95
2023-06-18T06:58:22.671Z,15.07
2023-06-18T07:00:49.708Z,14.50
2023-06-18T07:03:16.785Z,15.73
2023-06-18T07:05:43.899Z,14.82
2023-06-18T07:08:10.918Z,14.95
2023-06-18T07:10:37.841Z,13.07
2023-06-18T07:13:05.594Z,13.20
2023-06-18T07:15:32.561Z,12.85
2023-06-18T07:17:59.437Z,12.10
2023-06-18T07:20:26.358Z,12.10
2023-06-18T07:22:53.298Z,14.68
2023-06-18T07:25:20.146Z,11.98
2023-06-18T07:27:47.755Z,14.30
2023-06-18T07:30:14.741Z,14.52
2023-06-18T07:32:41.669Z,12.40
2023-06-18T07:35:09.198Z,14.05
2023-06-18T07:37:36.248Z,12.90
2023-06-18T07:40:03.274Z,13.65
2023-06-18T07:42:30.174Z,13.63
2023-06-18T07:44:57.158Z,13.23
2023-06-18T07:47:24.097Z,12.25
2023-06-18T07:49:51.168Z,16.42
2023-06-18T07:52:18.345Z,15.07
2023-06-18T07:54:45.187Z,13.13
2023-06-18T07:57:12.301Z,13.77
2023-06-18T07:59:39.248Z,11.38
2023-06-18T08:02:06.598Z,12.75
2023-06-18T08:04:33.559Z,15.52
2023-06-18T08:07:00.652Z,14.60
2023-06-18T08:09:27.733Z,16.48
2023-06-18T08:11:54.667Z,13.68
2023-06-18T08:14:21.547Z,11.98
2023-06-18T08:16:49.377Z,12.60
2023-06-18T08:19:16.262Z,14.10
2023-06-18T08:21:43.488Z,13.82
2023-06-18T08:24:10.513Z,13.60
2023-06-18T08:26:38.093Z,11.80
2023-06-18T08:29:05.060Z,10.27
2023-06-18T08:31:32.489Z,12.60
2023-06-18T08:33:59.343Z,13.07
2023-06-18T08:36:26.317Z,12.52
2023-06-18T08:38:53.133Z,12.73
2023-06-18T08:41:20.049Z,14.18
2023-06-18T08:43:47.334Z,12.77
2023-06-18T08:46:15.411Z,11.43
2023-06-18T08:48:45.139Z,13.88
2023-06-18T08:51:12.920Z,11.45
2023-06-18T08:53:46.924Z,15.77
2023-06-18T08:56:19.306Z,13.43
2023-06-18T08:58:51.259Z,14.60
2023-06-18T09:01:19.483Z,11.73
2023-06-18T09:03:46.670Z,12.32
2023-06-18T09:06:13.933Z,12.35
2023-06-18T09:08:40.837Z,13.70
2023-06-18T09:11:07.886Z,16.85
2023-06-18T09:13:35.085Z,12.48
2023-06-18T09:16:01.997Z,13.93
2023-06-18T09:18:29.057Z,14.95
2023-06-18T09:20:56.793Z,13.57
2023-06-18T09:23:23.752Z,14.27
2023-06-18T09:25:52.204Z,15.23
2023-06-18T09:28:22.329Z,15.13
2023-06-18T09:30:50.449Z,14.88
2023-06-18T09:33:26.807Z,12.52
2023-06-18T09:36:06.680Z,12.90
2023-06-18T09:38:37.744Z,14.10
2023-06-18T09:41:13.016Z,12.00
2023-06-18T09:43:41.309Z,15.05
2023-06-18T09:46:08.735Z,11.77
2023-06-18T09:48:36.908Z,15.25
2023-06-18T09:51:04.662Z,11.35
2023-06-18T09:53:32.168Z,14.07
2023-06-18T09:56:28.270Z,12.18
2023-06-18T09:58:55.144Z,11.57
2023-06-18T10:01:22.036Z,12.63
2023-06-18T10:03:49.343Z,11.18
2023-06-18T10:06:16.744Z,13.77
2023-06-18T10:08:45.010Z,10.45
2023-06-18T10:11:12.272Z,11.23
2023-06-18T10:13:59.862Z,11.35
2023-06-18T10:16:30.075Z,9.60
2023-06-18T10:19:03.151Z,8.80
2023-06-18T10:21:30.510Z,8.82
2023-06-18T10:24:00.157Z,10.60
2023-06-18T10:26:28.614Z,9.10
2023-06-18T10:28:57.242Z,8.65
2023-06-18T10:31:24.243Z,7.85
2023-06-18T10:33:51.409Z,8.10
2023-06-18T10:36:18.684Z,8.55
2023-06-18T10:38:46.139Z,9.20
2023-06-18T10:41:13.725Z,8.90
2023-06-18T10:43:41.445Z,8.38
2023-06-18T10:46:09.586Z,8.65
2023-06-18T10:48:36.779Z,9.65
2023-06-18T10:51:16.155Z,9.65
2023-06-18T10:53:43.725Z,7.88
2023-06-18T10:56:11.265Z,8.73
2023-06-18T10:58:41.014Z,9.73
2023-06-18T11:01:07.969Z,10.30
2023-06-18T11:03:39.013Z,8.85
2023-06-18T11:06:09.536Z,10.48
2023-06-18T11:08:36.792Z,10.20
2023-06-18T11:11:04.930Z,10.27
2023-06-18T11:13:35.820Z,10.43
2023-06-18T11:16:10.446Z,9.95
2023-06-18T11:18:37.930Z,11.55
2023-06-18T11:21:05.081Z,9.23
2023-06-18T11:23:32.679Z,12.10
2023-06-18T11:26:00.140Z,10.07
2023-06-18T11:28:27.217Z,9.75
2023-06-18T11:30:59.580Z,12.30
2023-06-18T11:33:28.270Z,9.32
2023-06-18T11:35:57.120Z,7.57
2023-06-18T11:38:24.002Z,8.50
2023-06-18T11:40:55.082Z,8.95
2023-06-18T11:43:22.302Z,8.35
2023-06-18T11:45:50.022Z,9.90
2023-06-18T11:48:17.926Z,10.23
2023-06-18T11:50:45.205Z,7.68
2023-06-18T11:53:12.859Z,6.47
2023-06-18T11:55:39.862Z,7.03
2023-06-18T11:58:07.056Z,6.03
2023-06-18T12:00:33.983Z,6.57
2023-06-18T12:03:02.059Z,7.50
2023-06-18T12:05:38.571Z,6.47
2023-06-18T12:08:09.147Z,6.93
2023-06-18T12:10:37.604Z,7.10
2023-06-18T12:13:10.503Z,5.63
2023-06-18T12:15:40.093Z,6.13
2023-06-18T12:18:14.406Z,7.30
2023-06-18T12:20:41.472Z,6.15
2023-06-18T12:23:08.568Z,7.03
2023-06-18T12:25:35.662Z,9.27
2023-06-18T12:28:06.091Z,7.22
2023-06-18T12:30:35.720Z,6.57
2023-06-18T12:33:07.019Z,6.90
2023-06-18T12:35:35.436Z,7.18
2023-06-18T12:38:09.933Z,6.80
2023-06-18T12:40:53.878Z,7.53
2023-06-18T12:43:21.359Z,6.95
2023-06-18T12:45:52.080Z,6.63
2023-06-18T12:48:25.777Z,6.22
2023-06-18T12:50:53.728Z,6.10
2023-06-18T12:53:21.932Z,6.68
2023-06-18T12:55:50.120Z,6.15
2023-06-18T12:58:18.611Z,6.18
2023-06-18T13:00:45.820Z,5.40
2023-06-18T13:03:13.064Z,5.97
2023-06-18T13:05:39.959Z,5.20
2023-06-18T13:08:11.603Z,6.57
2023-06-18T13:10:38.475Z,6.95
2023-06-18T13:13:05.348Z,6.28
2023-06-18T13:15:32.339Z,7.03
2023-06-18T13:17:59.456Z,8.02
2023-06-18T13:20:26.798Z,7.15
2023-06-18T13:22:54.777Z,7.45
2023-06-18T13:25:22.528Z,7.35
2023-06-18T13:27:49.721Z,7.65
2023-06-18T13:30:16.781Z,7.15
2023-06-18T13:32:43.846Z,7.70
2023-06-18T13:35:10.807Z,7.63
2023-06-18T13:37:37.700Z,7.78
2023-06-18T13:40:05.306Z,7.03
2023-06-18T13:42:32.478Z,7.30
2023-06-18T13:45:00.543Z,6.93
2023-06-18T13:47:27.783Z,6.38
2023-06-18T13:49:55.140Z,8.20
2023-06-18T13:52:22.146Z,7.90
2023-06-18T13:54:49.129Z,8.95
2023-06-18T13:57:16.800Z,7.20
2023-06-18T13:59:43.685Z,8.30
2023-06-18T14:02:10.561Z,6.65
2023-06-18T14:04:37.874Z,8.00
2023-06-18T14:07:05.271Z,8.10
2023-06-18T14:09:32.136Z,9.43
2023-06-18T14:11:58.992Z,7.13
2023-06-18T14:14:26.044Z,7.55
2023-06-18T14:16:52.891Z,6.65
2023-06-18T14:19:19.831Z,7.60
2023-06-18T14:21:46.789Z,6.75
2023-06-18T14:24:13.822Z,7.30
2023-06-18T14:26:40.709Z,9.07
2023-06-18T14:29:07.598Z,8.35
2023-06-18T14:31:35.047Z,7.63
2023-06-18T14:34:08.804Z,7.97
2023-06-18T14:36:39.172Z,7.40
2023-06-18T14:39:07.119Z,8.07
2023-06-18T14:41:34.172Z,7.65
2023-06-18T14:44:01.143Z,7.15
2023-06-18T14:46:29.614Z,8.43
2023-06-18T14:48:56.566Z,6.95
2023-06-18T14:51:23.453Z,7.72
2023-06-18T14:53:52.598Z,7.60
2023-06-18T14:56:21.081Z,8.45
2023-06-18T14:58:48.124Z,8.38
2023-06-18T15:01:15.109Z,10.93
2023-06-18T15:03:42.204Z,11.88
2023-06-18T15:06:09.177Z,9.85
2023-06-18T15:08:36.230Z,9.77
2023-06-18T15:11:03.127Z,13.00
2023-06-18T15:13:30.038Z,10.77
2023-06-18T15:15:57.794Z,12.02
2023-06-18T15:18:24.712Z,12.23
2023-06-18T15:20:51.622Z,11.68
2023-06-18T15:23:18.471Z,16.40
2023-06-18T15:25:45.474Z,12.77
2023-06-18T15:28:12.362Z,10.68
2023-06-18T15:30:39.255Z,11.88
2023-06-18T15:33:06.264Z,14.70
2023-06-18T15:35:33.178Z,13.85
2023-06-18T15:38:01.695Z,12.32
2023-06-18T15:40:28.779Z,12.25
2023-06-18T15:42:55.678Z,12.32
2023-06-18T15:45:23.127Z,15.23
2023-06-18T15:47:50.296Z,12.50
2023-06-18T15:50:17.270Z,12.98
2023-06-18T15:52:44.361Z,14.25
2023-06-18T15:55:11.770Z,13.45
2023-06-18T15:57:38.801Z,14.82
2023-06-18T16:00:08.253Z,16.13
2023-06-18T16:02:35.284Z,15.15
2023-06-18T16:05:06.442Z,17.45
2023-06-18T16:07:34.921Z,15.00
2023-06-18T16:10:01.812Z,13.63
2023-06-18T16:12:29.614Z,13.93
2023-06-18T16:14:56.572Z,14.80
2023-06-18T16:17:24.058Z,18.15
2023-06-18T16:19:50.916Z,18.45
2023-06-18T16:22:17.804Z,16.02
2023-06-18T16:24:45.318Z,16.27
2023-06-18T16:27:12.265Z,18.27
2023-06-18T16:29:39.157Z,16.65
2023-06-18T16:32:12.305Z,21.67
2023-06-18T16:34:39.964Z,17.52
2023-06-18T16:37:07.179Z,22.63
2023-06-18T16:39:34.782Z,20.63
2023-06-18T16:42:01.729Z,22.17
2023-06-18T16:44:28.563Z,20.17
2023-06-18T16:46:55.510Z,19.05
2023-06-18T16:49:22.795Z,20.98
2023-06-18T16:51:49.702Z,18.08
2023-06-18T16:54:16.570Z,19.05
2023-06-18T16:56:44.646Z,21.10
2023-06-18T16:59:11.591Z,19.40
2023-06-18T17:01:38.603Z,21.85
2023-06-18T17:04:07.407Z,21.60
2023-06-18T17:06:37.044Z,20.75
2023-06-18T17:09:04.079Z,20.00
2023-06-18T17:11:31.192Z,21.52
2023-06-18T17:13:58.608Z,24.13
2023-06-18T17:16:25.941Z,22.08
2023-06-18T17:18:52.987Z,20.55
2023-06-18T17:21:20.647Z,21.45
2023-06-18T17:23:47.624Z,21.88
2023-06-18T17:26:14.489Z,24.05
2023-06-18T17:28:41.632Z,25.48
2023-06-18T17:31:08.540Z,27.38
2023-06-18T17:33:36.833Z,24.80
2023-06-18T17:36:05.771Z,23.38
2023-06-18T17:38:32.652Z,24.30
2023-06-18T17:40:59.533Z,22.75
2023-06-18T17:43:26.409Z,24.35
2023-06-18T17:46:13.263Z,20.75
2023-06-18T17:48:40.852Z,21.67
2023-06-18T17:51:07.745Z,21.42
2023-06-18T17:53:35.299Z,21.05
2023-06-18T17:56:02.365Z,20.15
2023-06-18T17:58:29.380Z,20.38
2023-06-18T18:00:56.898Z,22.08
2023-06-18T18:03:24.055Z,24.70
2023-06-18T18:05:51.008Z,22.05
2023-06-18T18:08:17.890Z,23.90
2023-06-18T18:10:45.751Z,22.08
2023-06-18T18:13:12.916Z,21.98
2023-06-18T18:15:40.077Z,22.40
2023-06-18T18:18:07.129Z,22.23
2023-06-18T18:20:34.406Z,24.52
2023-06-18T18:23:01.358Z,23.65
2023-06-18T18:25:28.268Z,21.90
2023-06-18T18:27:55.196Z,20.92
2023-06-18T18:30:22.730Z,20.77
2023-06-18T18:32:49.728Z,19.42
2023-06-18T18:35:16.763Z,20.95
2023-06-18T18:37:43.741Z,18.00
2023-06-18T18:40:11.954Z,17.60
2023-06-18T18:42:38.846Z,16.67
2023-06-18T18:45:05.991Z,16.90
2023-06-18T18:47:33.012Z,17.42
2023-06-18T18:50:00.019Z,17.98
2023-06-18T18:52:28.594Z,18.17
2023-06-18T18:54:55.491Z,24.60
2023-06-18T18:57:22.370Z,20.15
2023-06-18T18:59:49.425Z,20.80
2023-06-18T19:02:17.022Z,20.35
2023-06-18T19:04:44.317Z,21.48
2023-06-18T19:07:11.377Z,22.13
2023-06-18T19:09:39.203Z,22.10
2023-06-18T19:12:06.590Z,19.55
2023-06-18T19:14:33.834Z,23.50
2023-06-18T19:17:00.790Z,23.30
2023-06-18T19:19:27.792Z,20.58
2023-06-18T19:21:54.928Z,23.67
2023-06-18T19:24:21.852Z,22.63
2023-06-18T19:26:48.841Z,21.85
2023-06-18T19:29:15.931Z,23.40
2023-06-18T19:31:43.122Z,26.05
2023-06-18T19:34:10.007Z,25.73
2023-06-18T19:36:37.332Z,26.17
2023-06-18T19:39:04.178Z,28.30
2023-06-18T19:41:31.052Z,24.65
2023-06-18T19:43:57.917Z,25.33
2023-06-18T19:46:24.886Z,27.67
2023-06-18T19:48:51.769Z,26.48
2023-06-18T19:51:18.669Z,25.60
2023-06-18T19:53:45.534Z,28.50
2023-06-18T19:56:14.141Z,27.63
2023-06-18T19:58:41.139Z,29.65
2023-06-18T20:01:08.316Z,30.30
2023-06-18T20:03:38.564Z,32.95
2023-06-18T20:06:06.319Z,33.88
2023-06-18T20:08:33.677Z,32.22
2023-06-18T20:11:00.628Z,36.20
2023-06-18T20:13:27.575Z,32.85
2023-06-18T20:15:57.252Z,31.25
2023-06-18T20:18:24.544Z,33.13
2023-06-18T20:20:51.579Z,32.22
2023-06-18T20:23:18.577Z,32.67
2023-06-18T20:25:45.449Z,32.28
2023-06-18T20:28:13.355Z,34.47
2023-06-18T20:30:40.271Z,33.10
2023-06-18T20:33:08.537Z,34.15
2023-06-18T20:35:35.552Z,37.90
2023-06-18T20:38:03.679Z,32.80
2023-06-18T20:40:30.552Z,33.05
2023-06-18T20:42:57.414Z,28.73
2023-06-18T20:45:24.940Z,29.58
2023-06-18T20:47:52.007Z,29.85
2023-06-18T20:50:19.363Z,29.55
2023-06-18T20:52:46.260Z,29.13
2023-06-18T20:55:13.217Z,29.63
2023-06-18T20:57:40.221Z,26.63
2023-06-18T21:00:07.628Z,26.83
2023-06-18T21:02:34.687Z,28.33
2023-06-18T21:05:01.798Z,27.08
2023-06-18T21:07:28.689Z,26.38
2023-06-18T21:09:55.581Z,28.17
2023-06-18T21:12:22.497Z,30.88
2023-06-18T21:14:49.352Z,32.15
2023-06-18T21:17:16.263Z,30.10
2023-06-18T21:19:43.123Z,31.30
2023-06-18T21:22:10.077Z,32.30
2023-06-18T21:24:37.081Z,38.08
2023-06-18T21:27:04.275Z,34.22
2023-06-18T21:29:31.254Z,39.30
2023-06-18T21:31:59.401Z,36.13
2023-06-18T21:34:26.716Z,41.70
2023-06-18T21:36:54.677Z,41.08
2023-06-18T21:39:21.550Z,42.78
2023-06-18T21:41:48.597Z,39.83
2023-06-18T21:44:15.514Z,43.75
2023-06-18T21:46:42.644Z,41.83
2023-06-18T21:49:09.566Z,43.47
2023-06-18T21:51:36.501Z,41.22
2023-06-18T21:54:03.436Z,44.30
2023-06-18T21:56:30.902Z,44.50
2023-06-18T21:58:57.826Z,42.22
2023-06-18T22:01:24.719Z,43.65
2023-06-18T22:03:56.284Z,44.97
2023-06-18T22:06:24.141Z,47.95
2023-06-18T22:08:51.960Z,47.35
2023-06-18T22:11:19.585Z,47.10
2023-06-18T22:13:46.667Z,42.47
2023-06-18T22:16:13.704Z,49.60
2023-06-18T22:18:40.645Z,47.15
2023-06-18T22:21:07.814Z,49.17
2023-06-18T22:23:35.236Z,48.97
2023-06-18T22:26:02.185Z,47.10
2023-06-18T22:28:29.137Z,52.53
2023-06-18T22:30:56.168Z,48.47
2023-06-18T22:33:23.050Z,49.55
2023-06-18T22:35:49.924Z,45.10
2023-06-18T22:38:16.773Z,47.67
2023-06-18T22:40:43.752Z,49.83
2023-06-18T22:43:10.629Z,48.47
2023-06-18T22:45:37.524Z,48.90
2023-06-18T22:48:04.592Z,52.28
2023-06-18T22:50:31.586Z,50.05
2023-06-18T22:52:58.497Z,47.03
2023-06-18T22:55:25.424Z,50.65
2023-06-18T22:57:52.284Z,51.70
2023-06-18T23:00:19.530Z,48.90
2023-06-18T23:02:46.929Z,48.90
2023-06-18T23:05:13.885Z,49.45
2023-06-18T23:07:40.846Z,48.40
2023-06-18T23:10:08.086Z,49.08
2023-06-18T23:12:34.940Z,49.38
2023-06-18T23:15:01.850Z,44.58
2023-06-18T23:17:30.308Z,45.25
2023-06-18T23:19:57.204Z,43.95
2023-06-18T23:22:28.294Z,41.70
2023-06-18T23:24:55.880Z,43.10
2023-06-18T23:27:22.861Z,43.55
2023-06-18T23:29:49.777Z,43.55
2023-06-18T23:32:18.611Z,38.72
2023-06-18T23:34:45.597Z,42.53
2023-06-18T23:37:12.692Z,42.03
2023-06-18T23:39:39.753Z,38.92
2023-06-18T23:42:06.958Z,39.67
2023-06-18T23:44:33.957Z,42.88
2023-06-18T23:47:00.949Z,38.72
2023-06-18T23:49:27.787Z,39.97
2023-06-18T23:51:54.657Z,37.10
2023-06-18T23:54:21.535Z,38.45
2023-06-18T23:56:48.374Z,37.92
2023-06-18T23:59:15.672Z,37.05
